createdAt,value
2023-02-04T00:02:32.730Z,54.82
2023-02-04T00:07:29.567Z,56.57
2023-02-04T00:12:26.476Z,57.49
2023-02-04T00:17:23.308Z,57.73
2023-02-04T00:22:20.822Z,58.36
2023-02-04T00:27:17.611Z,59.14
2023-02-04T00:32:16.226Z,60.41
2023-02-04T00:37:13.176Z,60.92
2023-02-04T00:42:10.571Z,61.53
2023-02-04T00:47:07.470Z,62.43
2023-02-04T00:52:04.637Z,63.26
2023-02-04T00:57:01.472Z,64.52
2023-02-04T01:02:00.027Z,65.04
2023-02-04T01:06:57.094Z,65.84
2023-02-04T01:11:53.981Z,66.34
2023-02-04T01:16:50.924Z,67.33
2023-02-04T01:21:48.489Z,67.25
2023-02-04T01:26:45.413Z,67.99
2023-02-04T01:31:42.439Z,68.72
2023-02-04T01:36:39.334Z,69.13
2023-02-04T01:41:37.453Z,69.61
2023-02-04T01:46:37.882Z,69.71
2023-02-04T01:51:36.578Z,70.27
2023-02-04T01:56:33.678Z,70.40
2023-02-04T02:01:36.889Z,71.18
2023-02-04T02:06:34.720Z,71.40
2023-02-04T02:11:32.292Z,71.80
2023-02-04T02:16:30.159Z,72.19
2023-02-04T02:21:33.795Z,72.45
2023-02-04T02:26:31.678Z,72.67
2023-02-04T02:31:28.630Z,72.88
2023-02-04T02:36:25.603Z,73.32
2023-02-04T02:41:22.414Z,73.44
2023-02-04T02:46:20.787Z,73.70
2023-02-04T02:51:17.688Z,73.65
2023-02-04T02:56:14.606Z,73.99
2023-02-04T03:01:12.087Z,74.59
2023-02-04T03:06:13.678Z,74.20
2023-02-04T03:11:12.531Z,74.24
2023-02-04T03:16:09.932Z,74.98
2023-02-04T03:21:07.642Z,75.17
2023-02-04T03:26:05.762Z,75.30
2023-02-04T03:31:03.279Z,75.57
2023-02-04T03:36:00.403Z,76.05
2023-02-04T03:40:57.847Z,75.79
2023-02-04T03:45:55.442Z,75.97
2023-02-04T03:50:52.332Z,76.11
2023-02-04T03:55:49.182Z,76.23
2023-02-04T04:00:45.975Z,76.42
2023-02-04T04:05:43.425Z,76.33
2023-02-04T04:10:41.976Z,76.22
2023-02-04T04:15:38.939Z,76.18
2023-02-04T04:20:35.933Z,76.39
2023-02-04T04:25:33.392Z,76.42
2023-02-04T04:30:31.331Z,76.55
2023-02-04T04:35:28.600Z,76.43
2023-02-04T04:40:25.465Z,76.32
2023-02-04T04:45:22.926Z,76.46
2023-02-04T04:50:20.029Z,76.47
2023-02-04T04:55:17.792Z,76.68
2023-02-04T05:00:17.249Z,76.83
2023-02-04T05:05:15.958Z,76.87
2023-02-04T05:10:12.806Z,76.76
2023-02-04T05:15:09.984Z,76.71
2023-02-04T05:20:08.070Z,76.95
2023-02-04T05:25:06.337Z,76.42
2023-02-04T05:30:03.358Z,76.47
2023-02-04T05:35:04.143Z,76.43
2023-02-04T05:40:02.405Z,76.68
2023-02-04T05:45:00.198Z,76.26
2023-02-04T05:49:58.904Z,76.61
2023-02-04T05:54:56.011Z,76.39
2023-02-04T05:59:53.366Z,76.47
2023-02-04T06:04:51.158Z,76.25
2023-02-04T06:09:47.970Z,76.52
2023-02-04T06:14:44.732Z,76.86
2023-02-04T06:19:41.829Z,76.68
2023-02-04T06:24:39.296Z,77.03
2023-02-04T06:29:36.151Z,76.30
2023-02-04T06:34:34.352Z,76.48
2023-02-04T06:39:31.169Z,76.16
2023-02-04T06:44:28.634Z,76.63
2023-02-04T06:49:25.556Z,76.49
2023-02-04T06:54:25.553Z,76.13
2023-02-04T06:59:25.888Z,76.34
2023-02-04T07:04:23.379Z,76.27
2023-02-04T07:09:20.297Z,76.18
2023-02-04T07:14:18.128Z,76.07
2023-02-04T07:19:15.227Z,75.75
2023-02-04T07:24:12.746Z,76.04
2023-02-04T07:29:17.330Z,75.62
2023-02-04T07:34:17.784Z,75.92
2023-02-04T07:39:15.571Z,75.89
2023-02-04T07:44:12.476Z,75.83
2023-02-04T07:49:09.307Z,76.46
2023-02-04T07:54:06.230Z,76.40
2023-02-04T07:59:03.905Z,76.05
2023-02-04T08:04:00.700Z,76.68
2023-02-04T08:08:57.729Z,76.92
2023-02-04T08:13:57.088Z,76.49
2023-02-04T08:18:56.382Z,76.74
2023-02-04T08:23:54.627Z,76.83
2023-02-04T08:28:51.422Z,76.59
2023-02-04T08:33:48.228Z,76.91
2023-02-04T08:38:45.792Z,76.84
2023-02-04T08:43:42.800Z,76.55
2023-02-04T08:48:39.600Z,76.46
2023-02-04T08:53:37.143Z,76.28
2023-02-04T08:58:35.006Z,76.38
2023-02-04T09:03:32.003Z,75.96
2023-02-04T09:08:28.846Z,75.96
2023-02-04T09:13:25.770Z,76.01
2023-02-04T09:18:24.959Z,75.90
2023-02-04T09:23:22.468Z,75.57
2023-02-04T09:28:19.442Z,75.38
2023-02-04T09:33:17.210Z,74.87
2023-02-04T09:38:15.497Z,74.57
2023-02-04T09:43:17.017Z,74.10
2023-02-04T09:48:14.436Z,74.12
2023-02-04T09:53:17.186Z,74.14
2023-02-04T09:58:17.057Z,74.33
2023-02-04T10:03:16.553Z,74.04
2023-02-04T10:08:16.057Z,74.30
2023-02-04T10:13:18.227Z,74.05
2023-02-04T10:18:26.513Z,72.89
2023-02-04T10:23:23.717Z,72.96
2023-02-04T10:28:21.725Z,71.48
2023-02-04T10:33:24.390Z,70.26
2023-02-04T10:38:22.120Z,69.37
2023-02-04T10:43:22.690Z,69.24
2023-02-04T10:48:20.011Z,68.72
2023-02-04T10:53:37.284Z,67.74
2023-02-04T10:58:35.418Z,66.32
2023-02-04T11:03:32.363Z,66.56
2023-02-04T11:08:33.152Z,66.01
2023-02-04T11:13:41.669Z,64.52
2023-02-04T11:18:47.778Z,64.96
2023-02-04T11:23:44.850Z,64.41
2023-02-04T11:29:08.116Z,62.91
2023-02-04T11:34:11.714Z,61.91
2023-02-04T11:39:16.333Z,62.16
2023-02-04T11:44:16.221Z,62.60
2023-02-04T11:49:17.477Z,62.51
2023-02-04T11:54:18.570Z,61.50
2023-02-04T11:59:17.046Z,60.17
2023-02-04T12:04:23.398Z,60.10
2023-02-04T12:09:25.558Z,59.47
2023-02-04T12:14:29.319Z,59.79
2023-02-04T12:19:27.855Z,60.43
2023-02-04T12:24:24.772Z,61.30
2023-02-04T12:29:22.477Z,56.70
2023-02-04T12:34:19.776Z,55.07
2023-02-04T12:39:16.673Z,57.65
2023-02-04T12:44:14.741Z,58.78
2023-02-04T12:49:12.427Z,59.12
2023-02-04T12:54:09.192Z,58.94
2023-02-04T12:59:06.025Z,55.75
2023-02-04T13:04:02.808Z,58.52
2023-02-04T13:09:01.383Z,60.44
2023-02-04T13:13:58.286Z,61.44
2023-02-04T13:18:55.137Z,62.29
2023-02-04T13:23:52.258Z,62.51
2023-02-04T13:28:49.900Z,62.22
2023-02-04T13:33:46.854Z,63.01
2023-02-04T13:38:43.880Z,63.12
2023-02-04T13:43:40.786Z,63.02
2023-02-04T13:48:38.492Z,63.18
2023-02-04T13:53:35.334Z,60.20
2023-02-04T13:58:32.404Z,60.69
2023-02-04T14:03:30.131Z,61.17
2023-02-04T14:08:27.757Z,61.08
2023-02-04T14:13:24.522Z,60.85
2023-02-04T14:18:21.347Z,59.81
2023-02-04T14:23:18.181Z,62.00
2023-02-04T14:28:15.686Z,63.78
2023-02-04T14:33:14.471Z,65.18
2023-02-04T14:38:11.730Z,66.69
2023-02-04T14:43:10.456Z,65.91
2023-02-04T14:48:08.678Z,66.38
2023-02-04T14:53:05.567Z,67.44
2023-02-04T14:58:02.443Z,68.18
2023-02-04T15:02:59.286Z,69.79
2023-02-04T15:07:56.696Z,69.31
2023-02-04T15:12:54.739Z,71.08
2023-02-04T15:17:51.506Z,71.29
2023-02-04T15:22:51.175Z,71.94
2023-02-04T15:27:48.798Z,72.80
2023-02-04T15:32:45.642Z,73.61
2023-02-04T15:37:42.594Z,73.23
2023-02-04T15:42:40.142Z,73.82
2023-02-04T15:47:37.850Z,74.51
2023-02-04T15:52:35.053Z,74.44
2023-02-04T15:57:32.110Z,74.23
2023-02-04T16:02:31.954Z,75.17
2023-02-04T16:07:29.455Z,75.88
2023-02-04T16:12:26.381Z,76.18
2023-02-04T16:17:23.213Z,75.63
2023-02-04T16:22:20.012Z,75.13
2023-02-04T16:27:17.527Z,76.05
2023-02-04T16:32:15.142Z,76.41
2023-02-04T16:37:11.946Z,76.15
2023-02-04T16:42:09.445Z,75.73
2023-02-04T16:47:08.285Z,75.77
2023-02-04T16:52:05.728Z,76.10
2023-02-04T16:57:03.198Z,76.65
2023-02-04T17:02:00.170Z,77.11
2023-02-04T17:06:59.778Z,77.38
2023-02-04T17:11:56.712Z,77.62
2023-02-04T17:16:54.135Z,78.05
2023-02-04T17:21:50.910Z,78.06
2023-02-04T17:26:48.470Z,78.71
2023-02-04T17:31:45.235Z,77.57
2023-02-04T17:36:43.110Z,78.53
2023-02-04T17:41:40.006Z,77.61
2023-02-04T17:46:37.657Z,78.26
2023-02-04T17:51:34.442Z,78.60
2023-02-04T17:56:31.690Z,78.80
2023-02-04T18:01:28.695Z,79.36
2023-02-04T18:06:28.353Z,78.09
2023-02-04T18:11:27.808Z,77.66
2023-02-04T18:16:36.754Z,76.88
2023-02-04T18:21:39.152Z,77.09
2023-02-04T18:26:43.949Z,76.97
2023-02-04T18:31:49.165Z,77.35
2023-02-04T18:36:46.880Z,77.22
2023-02-04T18:41:45.183Z,78.01
2023-02-04T18:46:46.969Z,77.86
2023-02-04T18:51:45.072Z,77.75
2023-02-04T18:56:43.555Z,78.15
2023-02-04T19:01:40.313Z,78.11
2023-02-04T19:06:39.107Z,78.58
2023-02-04T19:11:37.521Z,77.99
2023-02-04T19:16:36.601Z,77.34
2023-02-04T19:21:35.278Z,77.37
2023-02-04T19:26:38.838Z,77.39
2023-02-04T19:31:38.707Z,77.86
2023-02-04T19:36:37.854Z,77.12
2023-02-04T19:41:44.362Z,77.18
2023-02-04T19:46:42.283Z,78.21
2023-02-04T19:51:39.719Z,77.76
2023-02-04T19:56:38.947Z,77.78
2023-02-04T20:01:35.944Z,77.01
2023-02-04T20:06:35.522Z,77.65
2023-02-04T20:11:48.955Z,76.69
2023-02-04T20:16:49.853Z,77.64
2023-02-04T20:22:00.038Z,77.28
2023-02-04T20:26:57.031Z,77.16
2023-02-04T20:31:56.108Z,77.58
2023-02-04T20:36:54.635Z,77.49
2023-02-04T20:41:51.524Z,77.37
2023-02-04T20:46:48.417Z,76.79
2023-02-04T20:51:45.288Z,76.70
2023-02-04T20:56:43.267Z,76.73
2023-02-04T21:01:43.425Z,76.25
2023-02-04T21:06:40.416Z,76.87
2023-02-04T21:11:37.301Z,76.87
2023-02-04T21:16:34.752Z,76.40
2023-02-04T21:21:31.530Z,76.73
2023-02-04T21:26:28.424Z,77.66
2023-02-04T21:31:25.445Z,78.85
2023-02-04T21:36:23.765Z,79.62
2023-02-04T21:41:20.571Z,79.72
2023-02-04T21:46:18.109Z,80.75
2023-02-04T21:51:15.806Z,81.78
2023-02-04T21:56:13.968Z,81.44
2023-02-04T22:01:10.776Z,81.64
2023-02-04T22:06:08.080Z,82.63
2023-02-04T22:11:05.217Z,82.41
2023-02-04T22:16:02.765Z,81.40
2023-02-04T22:20:59.904Z,82.06
2023-02-04T22:25:56.719Z,81.71
2023-02-04T22:30:54.385Z,80.37
2023-02-04T22:35:51.963Z,81.13
2023-02-04T22:40:49.464Z,79.69
2023-02-04T22:45:46.184Z,79.27
2023-02-04T22:50:43.163Z,80.24
2023-02-04T22:55:40.613Z,78.52
2023-02-04T23:00:38.242Z,79.91
2023-02-04T23:05:36.711Z,79.13
2023-02-04T23:10:33.523Z,79.04
2023-02-04T23:15:31.147Z,79.87
2023-02-04T23:20:28.082Z,79.77
2023-02-04T23:25:24.940Z,78.75
2023-02-04T23:30:24.334Z,78.06
2023-02-04T23:35:22.113Z,76.69
2023-02-04T23:40:19.267Z,76.31
2023-02-04T23:45:16.361Z,74.98
2023-02-04T23:50:13.255Z,75.06
2023-02-04T23:55:10.833Z,74.46
